Hiko, Nevada
Current Conditions -  °F | °C
As of 12:58 PM on Saturday 22 Nov 2014 (Local Time) from KINS Reporting Station
Clear Clear  
Wind Chill: 17°   Ceiling: Unl
Heat Index: 17°   Visibility: 10mi
Dew Point: -4°   Wind: 6mph
Humidity: 24%   Direction: 120°ESE
Pressure: 29.93"   Gusts: NA
Location:  37.6°N, 115.23°W
Report Text: KINS 222058Z AUTO 12005KT 10SM CLR 17/M04 A2993 RMK AO2 SLP117 T01691042 57036
Loading
Personal Weather Stations






























Interactive Weather Map New forecast layout! Learn more

10-Day Weather Forecast

Advertisements
Track Severe Weather on mobile